createdAt,value
2018-07-06T00:00:18.321Z,7.10
2018-07-06T00:03:22.298Z,7.10
2018-07-06T00:06:03.461Z,7.53
2018-07-06T00:09:15.039Z,6.50
2018-07-06T00:12:04.277Z,6.70
2018-07-06T00:14:52.785Z,6.80
2018-07-06T00:17:42.634Z,6.13
2018-07-06T00:20:32.095Z,5.93
2018-07-06T00:23:21.168Z,6.60
2018-07-06T00:26:06.457Z,6.27
2018-07-06T00:28:50.780Z,6.07
2018-07-06T00:31:31.470Z,6.60
2018-07-06T00:34:12.407Z,5.57
2018-07-06T00:36:53.254Z,5.83
2018-07-06T00:39:34.609Z,6.50
2018-07-06T00:42:15.415Z,6.07
2018-07-06T00:44:57.630Z,5.50
2018-07-06T00:47:49.753Z,5.87
2018-07-06T00:50:41.481Z,5.73
2018-07-06T00:53:22.258Z,5.37
2018-07-06T00:56:22.263Z,5.67
2018-07-06T00:59:03.077Z,5.27
2018-07-06T01:02:07.831Z,5.10
2018-07-06T01:05:01.297Z,5.03
2018-07-06T01:07:42.266Z,4.80
2018-07-06T01:10:23.113Z,4.60
2018-07-06T01:13:21.678Z,4.73
2018-07-06T01:16:02.394Z,4.97
2018-07-06T01:18:43.559Z,4.37
2018-07-06T01:21:24.317Z,4.97
2018-07-06T01:24:05.357Z,4.90
2018-07-06T01:27:04.468Z,4.53
2018-07-06T01:29:54.169Z,4.47
2018-07-06T01:32:38.727Z,4.37
2018-07-06T01:35:23.318Z,4.50
2018-07-06T01:38:11.995Z,4.37
2018-07-06T01:40:53.055Z,4.23
2018-07-06T01:43:33.748Z,4.60
2018-07-06T01:46:14.982Z,3.97
2018-07-06T01:48:55.800Z,4.23
2018-07-06T01:51:36.938Z,4.50
2018-07-06T01:54:17.638Z,4.27
2018-07-06T01:57:06.162Z,4.50
2018-07-06T01:59:58.301Z,4.57
2018-07-06T02:02:39.842Z,4.23
2018-07-06T02:05:20.382Z,4.20
2018-07-06T02:08:10.518Z,3.97
2018-07-06T02:11:06.269Z,4.63
2018-07-06T02:13:48.353Z,3.57
2018-07-06T02:16:29.115Z,3.80
2018-07-06T02:19:12.412Z,4.10
2018-07-06T02:22:00.128Z,4.00
2018-07-06T02:24:41.019Z,3.70
2018-07-06T02:27:22.585Z,4.17
2018-07-06T02:30:03.250Z,3.87
2018-07-06T02:32:45.987Z,4.37
2018-07-06T02:35:42.151Z,4.00
2018-07-06T02:38:29.796Z,4.00
2018-07-06T02:41:11.601Z,3.77
2018-07-06T02:44:15.388Z,3.53
2018-07-06T02:47:05.465Z,4.17
2018-07-06T02:50:04.014Z,4.03
2018-07-06T02:52:45.440Z,3.70
2018-07-06T02:55:26.560Z,4.33
2018-07-06T02:58:14.603Z,3.97
2018-07-06T03:01:03.103Z,3.87
2018-07-06T03:03:45.734Z,3.67
2018-07-06T03:06:26.747Z,3.60
2018-07-06T03:09:07.315Z,3.40
2018-07-06T03:11:48.444Z,3.63
2018-07-06T03:14:48.236Z,3.70
2018-07-06T03:17:37.745Z,3.40
2018-07-06T03:20:34.550Z,3.63
2018-07-06T03:23:15.588Z,3.70
2018-07-06T03:26:12.840Z,3.40
2018-07-06T03:28:53.914Z,3.60
2018-07-06T03:31:35.858Z,3.60
2018-07-06T03:34:17.921Z,3.20
2018-07-06T03:37:06.754Z,3.63
2018-07-06T03:39:55.549Z,3.33
2018-07-06T03:42:38.783Z,3.53
2018-07-06T03:45:20.183Z,3.30
2018-07-06T03:48:00.871Z,3.40
2018-07-06T03:50:44.427Z,3.43
2018-07-06T03:53:26.241Z,3.50
2018-07-06T03:56:09.689Z,3.60
2018-07-06T03:59:01.212Z,3.57
2018-07-06T04:02:12.744Z,3.47
2018-07-06T04:05:16.698Z,3.40
2018-07-06T04:08:15.986Z,3.43
2018-07-06T04:11:01.690Z,3.70
2018-07-06T04:13:53.438Z,3.27
2018-07-06T04:16:34.475Z,3.50
2018-07-06T04:19:24.918Z,3.83
2018-07-06T04:22:05.861Z,4.00
2018-07-06T04:24:46.895Z,3.40
2018-07-06T04:27:29.998Z,3.67
2018-07-06T04:30:10.864Z,3.60
2018-07-06T04:33:05.534Z,4.37
2018-07-06T04:36:00.376Z,4.37
2018-07-06T04:38:41.690Z,4.20
2018-07-06T04:41:22.367Z,3.33
2018-07-06T04:44:06.981Z,3.63
2018-07-06T04:46:47.711Z,4.07
2018-07-06T04:49:37.395Z,3.73
2018-07-06T04:52:19.714Z,4.07
2018-07-06T04:55:28.274Z,3.77
2018-07-06T04:58:08.879Z,3.83
2018-07-06T05:00:49.908Z,3.73
2018-07-06T05:03:31.660Z,4.40
2018-07-06T05:06:12.617Z,4.10
2018-07-06T05:09:10.036Z,5.87
2018-07-06T05:12:22.187Z,5.53
2018-07-06T05:15:16.170Z,7.57
2018-07-06T05:18:18.375Z,7.47
2018-07-06T05:21:29.939Z,7.57
2018-07-06T05:24:12.722Z,8.77
2018-07-06T05:26:54.774Z,7.20
2018-07-06T05:29:36.038Z,8.47
2018-07-06T05:32:21.826Z,8.00
2018-07-06T05:35:05.491Z,7.40
2018-07-06T05:37:52.931Z,7.37
2018-07-06T05:40:57.947Z,8.20
2018-07-06T05:43:56.455Z,7.73
2018-07-06T05:46:37.828Z,8.53
2018-07-06T05:49:18.697Z,8.97
2018-07-06T05:52:04.260Z,10.07
2018-07-06T05:54:45.013Z,8.93
2018-07-06T05:57:41.852Z,9.83
2018-07-06T06:00:28.495Z,10.63
2018-07-06T06:03:09.915Z,9.23
2018-07-06T06:06:11.826Z,10.83
2018-07-06T06:09:01.282Z,8.90
2018-07-06T06:11:31.793Z,8.63
2018-07-06T06:14:19.636Z,7.43
2018-07-06T06:16:53.705Z,8.10
2018-07-06T06:19:50.501Z,7.27
2018-07-06T06:22:36.570Z,7.23
2018-07-06T06:25:08.402Z,7.33
2018-07-06T06:27:59.980Z,7.93
2018-07-06T06:30:33.966Z,7.17
2018-07-06T06:33:05.872Z,7.27
2018-07-06T06:35:46.411Z,7.40
2018-07-06T06:38:20.189Z,6.80
2018-07-06T06:40:50.899Z,6.87
2018-07-06T06:43:30.789Z,6.90
2018-07-06T06:46:11.938Z,7.33
2018-07-06T06:48:45.187Z,7.70
2018-07-06T06:51:33.929Z,8.03
2018-07-06T06:54:04.236Z,7.27
2018-07-06T06:56:34.495Z,8.30
2018-07-06T06:59:05.629Z,7.87
2018-07-06T07:01:36.370Z,10.57
2018-07-06T07:04:08.316Z,10.30
2018-07-06T07:06:38.337Z,9.03
2018-07-06T07:09:08.839Z,8.90
2018-07-06T07:11:57.573Z,9.60
2018-07-06T07:14:45.230Z,10.33
2018-07-06T07:17:16.824Z,10.27
2018-07-06T07:19:47.736Z,12.13
2018-07-06T07:22:18.945Z,11.77
2018-07-06T07:25:15.388Z,10.93
2018-07-06T07:28:05.901Z,12.03
2018-07-06T07:30:55.690Z,12.47
2018-07-06T07:33:28.357Z,12.13
2018-07-06T07:36:04.095Z,13.03
2018-07-06T07:38:34.198Z,13.07
2018-07-06T07:41:04.567Z,11.97
2018-07-06T07:43:35.171Z,12.43
2018-07-06T07:46:06.236Z,12.43
2018-07-06T07:48:45.566Z,11.37
2018-07-06T07:52:11.941Z,11.30
2018-07-06T07:54:47.244Z,11.93
2018-07-06T07:57:27.489Z,11.57
2018-07-06T08:00:00.822Z,11.93
2018-07-06T08:02:40.417Z,13.40
2018-07-06T08:05:21.367Z,11.87
2018-07-06T08:08:12.097Z,12.00
2018-07-06T08:10:44.728Z,11.77
2018-07-06T08:13:30.717Z,11.53
2018-07-06T08:16:10.055Z,11.80
2018-07-06T08:18:52.431Z,11.93
2018-07-06T08:21:39.104Z,13.93
2018-07-06T08:24:22.155Z,13.70
2018-07-06T08:27:10.448Z,13.40
2018-07-06T08:29:50.003Z,13.20
2018-07-06T08:32:30.322Z,13.10
2018-07-06T08:35:11.869Z,13.60
2018-07-06T08:38:03.304Z,11.73
2018-07-06T08:40:37.286Z,12.97
2018-07-06T08:43:14.393Z,12.30
2018-07-06T08:45:54.281Z,13.83
2018-07-06T08:48:34.605Z,13.70
2018-07-06T08:51:08.310Z,12.77
2018-07-06T08:53:41.147Z,13.47
2018-07-06T08:56:13.396Z,12.50
2018-07-06T08:58:57.362Z,13.63
2018-07-06T09:01:43.472Z,13.23
2018-07-06T09:04:18.859Z,13.33
2018-07-06T09:06:51.655Z,12.03
2018-07-06T09:09:22.399Z,11.77
2018-07-06T09:12:06.379Z,11.47
2018-07-06T09:14:47.101Z,13.60
2018-07-06T09:17:34.111Z,12.67
2018-07-06T09:20:13.907Z,12.47
2018-07-06T09:22:46.243Z,13.37
2018-07-06T09:25:19.146Z,12.57
2018-07-06T09:27:53.230Z,12.33
2018-07-06T09:30:30.764Z,12.70
2018-07-06T09:33:19.375Z,12.63
2018-07-06T09:35:51.176Z,11.50
2018-07-06T09:38:33.712Z,11.97
2018-07-06T09:41:30.752Z,13.47
2018-07-06T09:44:17.701Z,13.03
2018-07-06T09:47:00.734Z,12.60
2018-07-06T09:49:51.304Z,11.83
2018-07-06T09:52:21.628Z,11.47
2018-07-06T09:55:02.889Z,11.87
2018-07-06T09:57:41.979Z,11.53
2018-07-06T10:00:24.091Z,11.87
2018-07-06T10:03:03.401Z,11.30
2018-07-06T10:05:36.404Z,11.03
2018-07-06T10:08:09.822Z,12.27
2018-07-06T10:10:40.627Z,11.47
2018-07-06T10:13:21.139Z,11.97
2018-07-06T10:15:54.071Z,11.27
2018-07-06T10:18:41.191Z,12.07
2018-07-06T10:21:12.424Z,11.53
2018-07-06T10:23:53.082Z,10.83
2018-07-06T10:26:42.288Z,10.60
2018-07-06T10:30:12.040Z,11.50
2018-07-06T10:32:50.812Z,12.77
2018-07-06T10:35:28.799Z,12.63
2018-07-06T10:38:00.497Z,12.10
2018-07-06T10:40:40.831Z,11.43
2018-07-06T10:43:20.878Z,10.90
2018-07-06T10:47:03.546Z,10.90
2018-07-06T10:49:41.090Z,9.93
2018-07-06T10:52:16.410Z,10.03
2018-07-06T10:55:13.319Z,10.30
2018-07-06T10:57:47.365Z,11.77
2018-07-06T11:00:19.379Z,11.10
2018-07-06T11:02:55.193Z,9.83
2018-07-06T11:05:30.439Z,8.80
2018-07-06T11:08:18.113Z,10.60
2018-07-06T11:10:50.505Z,10.77
2018-07-06T11:13:37.199Z,11.37
2018-07-06T11:16:21.257Z,10.20
2018-07-06T11:19:01.891Z,10.73
2018-07-06T11:21:45.116Z,10.33
2018-07-06T11:24:40.234Z,10.27
2018-07-06T11:27:14.284Z,10.83
2018-07-06T11:29:56.153Z,9.93
2018-07-06T11:32:27.254Z,11.27
2018-07-06T11:35:00.489Z,10.50
2018-07-06T11:37:32.701Z,11.47
2018-07-06T11:40:05.421Z,9.23
2018-07-06T11:42:49.778Z,9.50
2018-07-06T11:45:25.164Z,9.37
2018-07-06T11:47:59.653Z,9.77
2018-07-06T11:50:31.300Z,10.27
2018-07-06T11:53:14.721Z,10.70
2018-07-06T11:56:11.392Z,9.13
2018-07-06T11:58:57.217Z,8.97
2018-07-06T12:01:32.332Z,8.80
2018-07-06T12:04:09.403Z,7.70
2018-07-06T12:07:10.601Z,8.77
2018-07-06T12:10:21.211Z,9.20
2018-07-06T12:12:58.291Z,8.23
2018-07-06T12:15:35.217Z,9.00
2018-07-06T12:18:14.464Z,7.33
2018-07-06T12:20:48.233Z,8.43
2018-07-06T12:23:25.092Z,7.70
2018-07-06T12:26:04.813Z,10.00
2018-07-06T12:28:38.641Z,8.50
2018-07-06T12:31:29.280Z,9.40
2018-07-06T12:34:01.544Z,8.50
2018-07-06T12:36:36.204Z,9.50
2018-07-06T12:39:09.819Z,9.13
2018-07-06T12:44:22.985Z,10.60
2018-07-06T12:47:20.119Z,11.33
2018-07-06T12:50:30.323Z,11.40
2018-07-06T12:53:10.341Z,11.60
2018-07-06T12:55:44.619Z,9.43
2018-07-06T12:58:16.780Z,12.13
2018-07-06T13:00:57.093Z,11.23
2018-07-06T13:03:29.409Z,10.30
2018-07-06T13:05:59.833Z,11.60
2018-07-06T13:08:34.790Z,10.23
2018-07-06T13:11:23.739Z,9.43
2018-07-06T13:13:55.101Z,8.60
2018-07-06T13:16:26.616Z,8.00
2018-07-06T13:19:15.699Z,8.90
2018-07-06T13:21:47.300Z,8.50
2018-07-06T13:24:20.367Z,8.50
2018-07-06T13:27:00.322Z,7.00
2018-07-06T13:29:32.620Z,7.87
2018-07-06T13:32:13.293Z,8.27
2018-07-06T13:34:52.786Z,7.67
2018-07-06T13:37:24.096Z,7.77
2018-07-06T13:39:56.394Z,7.57
2018-07-06T13:42:37.285Z,7.27
2018-07-06T13:45:13.890Z,8.00
2018-07-06T13:47:54.723Z,7.43
2018-07-06T13:50:27.232Z,8.77
2018-07-06T13:53:07.530Z,9.37
2018-07-06T13:55:44.104Z,10.07
2018-07-06T13:58:15.947Z,9.00
2018-07-06T14:00:56.439Z,7.63
2018-07-06T14:03:30.711Z,7.07
2018-07-06T14:06:03.263Z,7.50
2018-07-06T14:08:46.108Z,7.97
2018-07-06T14:11:24.268Z,7.70
2018-07-06T14:14:00.217Z,6.67
2018-07-06T14:16:52.746Z,6.60
2018-07-06T14:19:26.509Z,6.83
2018-07-06T14:21:58.241Z,6.33
2018-07-06T14:24:29.676Z,6.20
2018-07-06T14:27:04.792Z,6.00
2018-07-06T14:29:39.911Z,5.70
2018-07-06T14:32:16.773Z,5.60
2018-07-06T14:34:48.611Z,6.80
2018-07-06T14:37:19.719Z,5.93
2018-07-06T14:39:54.471Z,6.90
2018-07-06T14:42:34.861Z,5.90
2018-07-06T14:45:09.878Z,6.73
2018-07-06T14:47:47.569Z,5.80
2018-07-06T14:50:19.103Z,6.20
2018-07-06T14:52:52.386Z,5.93
2018-07-06T14:55:23.546Z,5.03
2018-07-06T14:57:58.103Z,5.77
2018-07-06T15:00:29.941Z,5.00
2018-07-06T15:03:00.538Z,6.47
2018-07-06T15:05:31.976Z,6.23
2018-07-06T15:08:04.618Z,5.37
2018-07-06T15:10:41.586Z,5.40
2018-07-06T15:13:12.411Z,5.27
2018-07-06T15:15:44.095Z,5.43
2018-07-06T15:18:15.820Z,6.10
2018-07-06T15:20:47.236Z,6.87
2018-07-06T15:23:27.740Z,7.07
2018-07-06T15:25:58.434Z,6.90
2018-07-06T15:28:30.729Z,6.83
2018-07-06T15:31:11.251Z,8.63
2018-07-06T15:33:48.231Z,7.47
2018-07-06T15:36:28.588Z,7.40
2018-07-06T15:39:16.429Z,7.20
2018-07-06T15:41:54.256Z,7.63
2018-07-06T15:44:34.431Z,8.33
2018-07-06T15:47:06.693Z,7.37
2018-07-06T15:49:44.324Z,7.17
2018-07-06T15:52:16.557Z,6.77
2018-07-06T15:54:47.851Z,7.50
2018-07-06T15:57:19.910Z,7.17
2018-07-06T16:00:04.865Z,6.70
2018-07-06T16:02:37.585Z,7.17
2018-07-06T16:05:17.758Z,6.97
2018-07-06T16:08:00.361Z,7.07
2018-07-06T16:10:33.669Z,6.40
2018-07-06T16:13:04.340Z,6.23
2018-07-06T16:15:44.696Z,7.83
2018-07-06T16:18:35.431Z,6.57
2018-07-06T16:21:25.283Z,7.30
2018-07-06T16:23:56.079Z,6.70
2018-07-06T16:26:37.686Z,6.93
2018-07-06T16:29:13.813Z,7.07
2018-07-06T16:31:51.132Z,7.27
2018-07-06T16:34:31.515Z,6.50
2018-07-06T16:37:21.635Z,7.43
2018-07-06T16:39:54.412Z,6.73
2018-07-06T16:42:24.908Z,5.80
2018-07-06T16:44:58.263Z,5.73
2018-07-06T16:47:33.475Z,5.67
2018-07-06T16:50:05.375Z,5.77
2018-07-06T16:52:41.301Z,5.73
2018-07-06T16:55:11.997Z,6.37
2018-07-06T16:57:43.552Z,6.00
2018-07-06T17:00:15.790Z,6.40
2018-07-06T17:02:50.232Z,5.63
2018-07-06T17:05:23.338Z,5.40
2018-07-06T17:07:58.110Z,5.43
2018-07-06T17:10:29.081Z,6.07
2018-07-06T17:13:01.607Z,6.20
2018-07-06T17:15:34.271Z,6.10
2018-07-06T17:18:10.009Z,6.00
2018-07-06T17:20:42.123Z,5.77
2018-07-06T17:23:16.068Z,6.33
2018-07-06T17:25:47.434Z,6.10
2018-07-06T17:28:19.686Z,6.13
2018-07-06T17:30:51.103Z,6.60
2018-07-06T17:33:24.405Z,6.07
2018-07-06T17:35:59.041Z,6.50
2018-07-06T17:39:03.600Z,6.20
2018-07-06T17:41:40.550Z,6.43
2018-07-06T17:44:13.676Z,6.13
2018-07-06T17:46:47.732Z,6.43
2018-07-06T17:49:18.625Z,5.73
2018-07-06T17:51:51.961Z,5.50
2018-07-06T17:54:23.099Z,6.07
2018-07-06T17:56:55.701Z,5.90
2018-07-06T17:59:33.218Z,5.23
2018-07-06T18:02:04.568Z,5.77
2018-07-06T18:04:39.968Z,5.77
2018-07-06T18:09:48.760Z,5.60
2018-07-06T18:12:23.079Z,5.57
2018-07-06T18:14:56.364Z,6.50
2018-07-06T18:17:30.356Z,5.90
2018-07-06T18:20:03.877Z,5.60
2018-07-06T18:22:35.216Z,5.80
2018-07-06T18:25:09.888Z,6.00
2018-07-06T18:27:42.926Z,6.10
2018-07-06T18:30:14.479Z,6.03
2018-07-06T18:32:47.284Z,5.47
2018-07-06T18:35:20.447Z,5.80
2018-07-06T18:37:53.562Z,5.63
2018-07-06T18:40:24.699Z,5.73
2018-07-06T18:42:58.656Z,5.97
2018-07-06T18:45:29.773Z,5.80
2018-07-06T18:48:04.270Z,5.20
2018-07-06T18:50:38.016Z,5.30
2018-07-06T18:53:09.217Z,5.10
2018-07-06T18:55:41.670Z,5.30
2018-07-06T18:58:21.954Z,5.00
2018-07-06T19:00:54.938Z,5.63
2018-07-06T19:03:27.204Z,5.57
2018-07-06T19:05:58.268Z,4.77
2018-07-06T19:08:28.770Z,5.30
2018-07-06T19:11:03.754Z,5.13
2018-07-06T19:13:34.793Z,4.40
2018-07-06T19:16:06.720Z,4.90
2018-07-06T19:18:41.545Z,4.90
2018-07-06T19:21:15.045Z,5.07
2018-07-06T19:23:47.761Z,5.17
2018-07-06T19:26:18.707Z,5.07
2018-07-06T19:28:52.623Z,5.40
2018-07-06T19:31:25.642Z,5.27
2018-07-06T19:34:01.756Z,5.33
2018-07-06T19:36:35.887Z,5.40
2018-07-06T19:39:09.400Z,5.67
2018-07-06T19:41:41.206Z,5.73
2018-07-06T19:44:11.990Z,5.00
2018-07-06T19:46:43.202Z,5.30
2018-07-06T19:49:16.719Z,5.17
2018-07-06T19:51:49.114Z,5.60
2018-07-06T19:54:20.705Z,5.20
2018-07-06T19:56:52.345Z,5.67
2018-07-06T19:59:27.097Z,5.30
2018-07-06T20:02:06.096Z,14.70
2018-07-06T20:04:41.086Z,6.27
2018-07-06T20:07:15.397Z,10.80
2018-07-06T20:09:47.056Z,6.00
2018-07-06T20:12:17.761Z,5.47
2018-07-06T20:14:48.670Z,6.03
2018-07-06T20:17:19.574Z,6.10
2018-07-06T20:19:51.295Z,5.63
2018-07-06T20:22:22.088Z,5.83
2018-07-06T20:24:54.300Z,6.47
2018-07-06T20:27:27.000Z,5.43
2018-07-06T20:29:57.882Z,6.00
2018-07-06T20:32:29.556Z,5.77
2018-07-06T20:35:02.240Z,5.80
2018-07-06T20:37:34.145Z,6.93
2018-07-06T20:40:12.091Z,5.80
2018-07-06T20:42:44.496Z,5.70
2018-07-06T20:45:20.991Z,6.23
2018-07-06T20:48:00.281Z,5.60
2018-07-06T20:50:33.762Z,5.37
2018-07-06T20:53:07.367Z,6.20
2018-07-06T20:55:42.355Z,5.93
2018-07-06T20:58:18.575Z,5.93
2018-07-06T21:00:53.315Z,5.20
2018-07-06T21:03:27.832Z,6.50
2018-07-06T21:06:00.029Z,5.90
2018-07-06T21:08:33.286Z,5.30
2018-07-06T21:11:11.511Z,5.80
2018-07-06T21:13:50.260Z,5.53
2018-07-06T21:16:22.079Z,5.57
2018-07-06T21:18:56.749Z,5.93
2018-07-06T21:21:38.983Z,6.10
2018-07-06T21:24:13.626Z,6.33
2018-07-06T21:26:50.621Z,6.60
2018-07-06T21:29:27.386Z,6.47
2018-07-06T21:31:59.384Z,6.37
2018-07-06T21:34:34.107Z,6.93
2018-07-06T21:37:06.108Z,6.93
2018-07-06T21:39:37.855Z,6.93
2018-07-06T21:42:09.254Z,6.30
2018-07-06T21:44:41.591Z,6.57
2018-07-06T21:47:14.714Z,6.27
2018-07-06T21:49:48.782Z,6.50
2018-07-06T21:52:19.844Z,6.27
2018-07-06T21:54:53.239Z,6.00
2018-07-06T21:57:23.906Z,5.93
2018-07-06T21:59:55.637Z,5.80
2018-07-06T22:02:27.238Z,6.17
2018-07-06T22:04:59.106Z,5.80
2018-07-06T22:07:30.534Z,5.93
2018-07-06T22:10:04.842Z,6.33
2018-07-06T22:12:36.752Z,5.80
2018-07-06T22:15:07.709Z,5.93
2018-07-06T22:17:38.548Z,5.60
2018-07-06T22:20:17.363Z,5.93
2018-07-06T22:22:48.798Z,6.10
2018-07-06T22:25:20.569Z,6.30
2018-07-06T22:27:53.088Z,6.20
2018-07-06T22:30:24.823Z,6.20
2018-07-06T22:33:00.690Z,5.90
2018-07-06T22:35:31.175Z,6.33
2018-07-06T22:38:03.667Z,6.20
2018-07-06T22:40:36.092Z,6.20
2018-07-06T22:43:07.239Z,6.20
2018-07-06T22:45:38.982Z,6.07
2018-07-06T22:48:10.578Z,6.30
2018-07-06T22:50:41.278Z,5.73
2018-07-06T22:53:12.767Z,5.73
2018-07-06T22:55:45.084Z,5.83
2018-07-06T22:58:15.783Z,6.30
2018-07-06T23:00:46.767Z,6.10
2018-07-06T23:03:17.762Z,5.90
2018-07-06T23:05:48.652Z,5.90
2018-07-06T23:08:19.534Z,5.73
2018-07-06T23:10:51.364Z,6.57
2018-07-06T23:13:22.112Z,6.67
2018-07-06T23:15:53.231Z,6.73
2018-07-06T23:18:24.871Z,6.67
2018-07-06T23:20:55.269Z,6.40
2018-07-06T23:23:25.625Z,6.50
2018-07-06T23:25:56.326Z,6.10
2018-07-06T23:28:26.925Z,6.90
2018-07-06T23:30:58.049Z,6.60
2018-07-06T23:33:28.409Z,5.80
2018-07-06T23:35:58.754Z,6.27
2018-07-06T23:38:29.078Z,6.73
2018-07-06T23:40:59.672Z,6.00
2018-07-06T23:43:30.266Z,6.33
2018-07-06T23:46:01.003Z,6.60
2018-07-06T23:48:32.556Z,6.40
2018-07-06T23:51:03.594Z,6.47
2018-07-06T23:53:34.198Z,5.80
2018-07-06T23:56:05.177Z,6.47
2018-07-06T23:58:35.654Z,6.77
